Terminal Aerodrome Forecast
Issued by NWS Sioux Falls, SD

Home | Current Version | Previous Version | Graphics & Text | Print | Product List | Glossary Off
Versions: 1 2 3 4 5 6 7 8 9 10 11 12 13 14 15 16 17

785
FTUS43 KFSD 251130
TAFHON
TAF
KHON 251130Z 2512/2612 17006KT P6SM SKC
     FM251800 19011KT P6SM SKC
     FM252300 17010KT P6SM FEW250
     FM260800 17007KT P6SM BKN120=

USA.gov is the U.S. government's official web portal to all federal, state and local government web resources and services.